createdAt,value
2019-03-12T00:00:53.101Z,3.55
2019-03-12T00:03:21.392Z,8.78
2019-03-12T00:05:49.683Z,5.95
2019-03-12T00:08:20.765Z,4.83
2019-03-12T00:10:50.165Z,7.53
2019-03-12T00:13:18.549Z,5.28
2019-03-12T00:15:46.959Z,5.03
2019-03-12T00:18:15.365Z,5.28
2019-03-12T00:20:45.343Z,7.03
2019-03-12T00:23:13.721Z,3.85
2019-03-12T00:25:42.019Z,7.15
2019-03-12T00:28:10.269Z,3.37
2019-03-12T00:30:38.520Z,6.47
2019-03-12T00:33:06.790Z,7.62
2019-03-12T00:35:35.049Z,8.70
2019-03-12T00:38:03.296Z,6.78
2019-03-12T00:40:32.583Z,5.08
2019-03-12T00:43:00.871Z,8.30
2019-03-12T00:45:29.199Z,7.20
2019-03-12T00:47:57.579Z,5.03
2019-03-12T00:50:26.302Z,5.08
2019-03-12T00:52:54.574Z,6.28
2019-03-12T00:55:22.876Z,6.12
2019-03-12T00:57:51.253Z,6.47
2019-03-12T01:00:19.789Z,4.33
2019-03-12T01:02:48.161Z,6.87
2019-03-12T01:05:16.525Z,7.62
2019-03-12T01:07:46.469Z,9.20
2019-03-12T01:10:15.174Z,9.45
2019-03-12T01:12:44.520Z,8.75
2019-03-12T01:15:13.907Z,6.67
2019-03-12T01:17:42.262Z,8.60
2019-03-12T01:20:15.206Z,4.62
2019-03-12T01:22:43.554Z,4.45
2019-03-12T01:25:13.051Z,5.12
2019-03-12T01:27:43.027Z,4.72
2019-03-12T01:30:20.203Z,7.53
2019-03-12T01:32:48.504Z,5.95
2019-03-12T01:35:16.848Z,6.80
2019-03-12T01:37:48.077Z,10.25
2019-03-12T01:40:16.412Z,6.62
2019-03-12T01:42:44.702Z,7.40
2019-03-12T01:45:14.109Z,6.67
2019-03-12T01:47:42.449Z,7.47
2019-03-12T01:50:15.102Z,6.53
2019-03-12T01:52:44.636Z,6.35
2019-03-12T01:55:14.395Z,6.05
2019-03-12T01:57:42.701Z,8.08
2019-03-12T02:00:19.238Z,8.85
2019-03-12T02:02:47.553Z,6.20
2019-03-12T02:05:15.846Z,7.55
2019-03-12T02:07:44.408Z,7.62
2019-03-12T02:10:14.188Z,7.65
2019-03-12T02:12:42.525Z,5.75
2019-03-12T02:15:16.709Z,5.87
2019-03-12T02:17:45.648Z,6.70
2019-03-12T02:20:17.248Z,9.00
2019-03-12T02:22:45.595Z,4.25
2019-03-12T02:25:18.662Z,5.10
2019-03-12T02:27:47.030Z,5.55
2019-03-12T02:30:17.772Z,4.60
2019-03-12T02:32:46.193Z,7.55
2019-03-12T02:35:14.717Z,8.98
2019-03-12T02:37:43.006Z,6.17
2019-03-12T02:40:12.424Z,8.50
2019-03-12T02:42:40.695Z,5.25
2019-03-12T02:45:14.673Z,4.72
2019-03-12T02:47:42.995Z,6.58
2019-03-12T02:50:13.459Z,8.35
2019-03-12T02:52:42.657Z,4.97
2019-03-12T02:55:11.462Z,6.53
2019-03-12T02:57:39.760Z,4.40
2019-03-12T03:00:17.474Z,9.30
2019-03-12T03:02:45.789Z,6.47
2019-03-12T03:05:14.079Z,8.53
2019-03-12T03:07:44.004Z,6.03
2019-03-12T03:10:13.759Z,6.90
2019-03-12T03:12:42.170Z,6.95
2019-03-12T03:15:22.390Z,5.95
2019-03-12T03:17:50.688Z,6.22
2019-03-12T03:20:18.987Z,6.22
2019-03-12T03:22:47.441Z,9.45
2019-03-12T03:25:16.811Z,8.10
2019-03-12T03:27:45.092Z,5.75
2019-03-12T03:30:18.462Z,7.75
2019-03-12T03:32:46.810Z,6.08
2019-03-12T03:35:19.297Z,7.25
2019-03-12T03:37:47.671Z,4.97
2019-03-12T03:40:21.065Z,7.28
2019-03-12T03:42:49.465Z,12.95
2019-03-12T03:45:17.842Z,5.67
2019-03-12T03:47:46.158Z,2.00
2019-03-12T03:50:17.968Z,7.47
2019-03-12T03:52:46.304Z,7.45
2019-03-12T03:55:16.677Z,7.85
2019-03-12T03:57:44.989Z,6.37
2019-03-12T04:00:18.303Z,5.20
2019-03-12T04:02:46.670Z,8.98
2019-03-12T04:05:14.987Z,5.37
2019-03-12T04:07:43.291Z,5.80
2019-03-12T04:10:13.423Z,8.48
2019-03-12T04:12:41.756Z,7.10
2019-03-12T04:15:15.173Z,4.95
2019-03-12T04:20:12.649Z,5.80
2019-03-12T04:22:41.041Z,9.53
2019-03-12T04:25:09.929Z,4.72
2019-03-12T04:27:38.246Z,6.22
2019-03-12T04:30:12.314Z,8.75
2019-03-12T04:32:40.633Z,6.70
2019-03-12T04:35:12.023Z,7.40
2019-03-12T04:37:40.771Z,6.95
2019-03-12T04:40:11.261Z,7.50
2019-03-12T04:42:39.542Z,12.53
2019-03-12T04:45:10.781Z,8.50
2019-03-12T04:47:39.133Z,9.58
2019-03-12T04:50:08.973Z,8.30
2019-03-12T04:52:37.282Z,5.95
2019-03-12T04:55:08.656Z,7.12
2019-03-12T04:57:36.965Z,5.55
2019-03-12T05:00:08.743Z,4.90
2019-03-12T05:02:37.044Z,10.63
2019-03-12T05:05:06.253Z,8.73
2019-03-12T05:07:34.592Z,7.00
2019-03-12T05:10:03.675Z,7.25
2019-03-12T05:12:31.978Z,5.08
2019-03-12T05:15:00.327Z,7.80
2019-03-12T05:17:28.705Z,8.90
2019-03-12T05:19:57.039Z,6.67
2019-03-12T05:22:29.392Z,10.00
2019-03-12T05:24:57.702Z,16.97
2019-03-12T05:27:26.068Z,10.28
2019-03-12T05:29:54.364Z,7.05
2019-03-12T05:32:22.648Z,7.78
2019-03-12T05:34:50.989Z,4.90
2019-03-12T05:37:19.368Z,7.87
2019-03-12T05:39:50.955Z,5.15
2019-03-12T05:42:19.280Z,7.15
2019-03-12T05:44:48.206Z,7.10
2019-03-12T05:47:16.577Z,8.18
2019-03-12T05:49:44.894Z,6.40
2019-03-12T05:52:13.179Z,9.10
2019-03-12T05:54:41.457Z,4.67
2019-03-12T05:57:09.712Z,12.35
2019-03-12T05:59:38.024Z,10.48
2019-03-12T06:02:08.045Z,7.78
2019-03-12T06:04:37.935Z,7.42
2019-03-12T06:07:06.157Z,8.15
2019-03-12T06:09:34.393Z,8.20
2019-03-12T06:12:02.606Z,8.53
2019-03-12T06:14:30.828Z,5.37
2019-03-12T06:16:59.075Z,8.83
2019-03-12T06:19:27.301Z,7.58
2019-03-12T06:21:55.556Z,6.03
2019-03-12T06:24:23.881Z,7.45
2019-03-12T06:26:54.327Z,4.92
2019-03-12T06:29:22.566Z,6.60
2019-03-12T06:31:55.290Z,6.95
2019-03-12T06:34:26.829Z,10.13
2019-03-12T06:36:56.673Z,6.30
2019-03-12T06:39:35.373Z,6.97
2019-03-12T06:42:07.689Z,6.95
2019-03-12T06:44:53.362Z,8.80
2019-03-12T06:47:28.958Z,8.43
2019-03-12T06:50:08.149Z,5.85
2019-03-12T06:52:40.446Z,9.75
2019-03-12T06:55:25.387Z,10.48
2019-03-12T06:58:21.250Z,6.45
2019-03-12T07:00:54.139Z,7.03
2019-03-12T07:03:27.018Z,7.58
2019-03-12T07:06:02.866Z,9.98
2019-03-12T07:08:35.265Z,7.62
2019-03-12T07:11:21.673Z,8.20
2019-03-12T07:13:54.510Z,9.03
2019-03-12T07:16:24.360Z,7.05
2019-03-12T07:18:54.277Z,9.53
2019-03-12T07:21:26.859Z,6.87
2019-03-12T07:24:05.725Z,12.50
2019-03-12T07:26:35.611Z,7.87
2019-03-12T07:29:08.334Z,7.95
2019-03-12T07:31:41.152Z,9.17
2019-03-12T07:34:11.018Z,11.88
2019-03-12T07:36:49.316Z,10.03
2019-03-12T07:39:34.198Z,7.37
2019-03-12T07:42:18.255Z,10.60
2019-03-12T07:45:06.585Z,6.70
2019-03-12T07:47:36.443Z,9.80
2019-03-12T07:50:25.761Z,7.53
2019-03-12T07:52:55.642Z,4.72
2019-03-12T07:55:29.894Z,12.10
2019-03-12T07:58:00.144Z,6.53
2019-03-12T08:00:30.089Z,9.10
2019-03-12T08:03:06.168Z,7.47
2019-03-12T08:05:48.137Z,8.25
2019-03-12T08:08:26.764Z,9.68
2019-03-12T08:11:11.657Z,8.20
2019-03-12T08:13:47.449Z,7.22
2019-03-12T08:16:17.378Z,8.45
2019-03-12T08:18:50.121Z,6.80
2019-03-12T08:21:22.934Z,5.90
2019-03-12T08:24:13.599Z,11.68
2019-03-12T08:26:42.561Z,6.87
2019-03-12T08:29:15.383Z,7.03
2019-03-12T08:31:47.973Z,6.35
2019-03-12T08:34:20.272Z,4.45
2019-03-12T08:36:56.147Z,7.30
2019-03-12T08:39:26.021Z,7.03
2019-03-12T08:42:18.335Z,5.70
2019-03-12T08:44:53.971Z,5.87
2019-03-12T08:47:35.873Z,5.85
2019-03-12T08:50:07.732Z,5.70
2019-03-12T08:52:49.692Z,9.10
2019-03-12T08:55:19.631Z,6.28
2019-03-12T08:57:55.268Z,3.72
2019-03-12T09:00:33.951Z,4.90
2019-03-12T09:03:12.841Z,5.70
2019-03-12T09:05:48.991Z,8.68
2019-03-12T09:08:21.610Z,5.97
2019-03-12T09:11:06.582Z,6.90
2019-03-12T09:13:42.060Z,8.53
2019-03-12T09:16:28.274Z,5.05
2019-03-12T09:19:01.038Z,8.05
2019-03-12T09:21:41.799Z,8.68
2019-03-12T09:24:23.636Z,7.17
2019-03-12T09:26:56.295Z,6.65
2019-03-12T09:29:26.182Z,7.83
2019-03-12T09:31:58.755Z,7.47
2019-03-12T09:34:28.677Z,6.45
2019-03-12T09:37:15.243Z,6.15
2019-03-12T09:39:57.330Z,6.30
2019-03-12T09:42:42.318Z,5.55
2019-03-12T09:45:12.197Z,5.67
2019-03-12T09:47:42.126Z,7.22
2019-03-12T09:50:21.154Z,4.87
2019-03-12T09:53:09.112Z,6.55
2019-03-12T09:55:38.990Z,7.72
2019-03-12T09:58:11.888Z,8.45
2019-03-12T10:00:56.906Z,6.70
2019-03-12T10:03:32.791Z,10.98
2019-03-12T10:06:18.969Z,4.58
2019-03-12T10:08:48.885Z,2.67
2019-03-12T10:11:18.833Z,2.55
2019-03-12T10:13:54.679Z,5.40
2019-03-12T10:16:33.287Z,8.00
2019-03-12T10:19:08.883Z,7.53
2019-03-12T10:21:38.838Z,7.78
2019-03-12T10:24:28.631Z,3.40
2019-03-12T10:27:09.556Z,5.35
2019-03-12T10:29:51.646Z,6.12
2019-03-12T10:32:21.603Z,5.53
2019-03-12T10:34:51.574Z,9.30
2019-03-12T10:37:27.081Z,5.67
2019-03-12T10:40:19.928Z,5.17
2019-03-12T10:43:09.856Z,6.40
2019-03-12T10:45:45.351Z,5.75
2019-03-12T10:48:17.625Z,3.37
2019-03-12T10:50:45.874Z,7.75
2019-03-12T10:53:14.124Z,4.80
2019-03-12T10:55:42.406Z,3.40
2019-03-12T10:58:10.720Z,2.47
2019-03-12T11:00:39.930Z,9.33
2019-03-12T11:03:08.263Z,8.53
2019-03-12T11:05:46.024Z,3.67
2019-03-12T11:08:06.980Z,4.40
2019-03-12T11:10:35.539Z,6.42
2019-03-12T11:13:03.835Z,3.72
2019-03-12T11:15:32.097Z,6.28
2019-03-12T11:18:00.430Z,5.20
2019-03-12T11:20:28.708Z,7.58
2019-03-12T11:22:57.032Z,4.45
2019-03-12T11:25:27.718Z,8.38
2019-03-12T11:27:55.407Z,4.47
2019-03-12T11:30:23.661Z,3.47
2019-03-12T11:32:57.715Z,3.42
2019-03-12T11:35:25.977Z,6.08
2019-03-12T11:37:54.332Z,2.92
2019-03-12T11:40:24.398Z,4.10
2019-03-12T11:42:52.772Z,4.60
2019-03-12T11:45:34.896Z,5.12
2019-03-12T11:47:51.078Z,4.95
2019-03-12T11:50:24.427Z,4.53
2019-03-12T11:52:57.148Z,4.00
2019-03-12T11:55:22.641Z,4.58
2019-03-12T11:57:50.912Z,4.15
2019-03-12T12:00:32.759Z,4.03
2019-03-12T12:03:01.014Z,3.65
2019-03-12T12:05:30.513Z,3.72
2019-03-12T12:07:58.755Z,4.22
2019-03-12T12:10:27.073Z,4.90
2019-03-12T12:12:55.325Z,2.37
2019-03-12T12:15:23.600Z,6.08
2019-03-12T12:17:51.847Z,3.67
2019-03-12T12:20:29.458Z,9.55
2019-03-12T12:22:50.077Z,4.87
2019-03-12T12:25:19.265Z,3.55
2019-03-12T12:27:47.534Z,5.28
2019-03-12T12:30:18.640Z,4.85
2019-03-12T12:32:47.065Z,3.70
2019-03-12T12:35:15.339Z,3.02
2019-03-12T12:37:43.608Z,1.95
2019-03-12T12:40:23.856Z,3.00
2019-03-12T12:42:52.198Z,4.22
2019-03-12T12:45:26.444Z,2.72
2019-03-12T12:47:54.697Z,3.25
2019-03-12T12:50:23.016Z,5.12
2019-03-12T12:52:51.258Z,3.83
2019-03-12T12:55:19.555Z,2.08
2019-03-12T12:57:47.786Z,1.25
2019-03-12T13:00:22.093Z,1.05
2019-03-12T13:02:50.363Z,1.50
2019-03-12T13:05:18.651Z,2.85
2019-03-12T13:07:47.046Z,1.95
2019-03-12T13:10:26.026Z,3.47
2019-03-12T13:12:54.312Z,2.87
2019-03-12T13:15:22.596Z,3.83
2019-03-12T13:17:50.852Z,2.47
2019-03-12T13:20:19.155Z,2.72
2019-03-12T13:22:47.430Z,1.60
2019-03-12T13:25:17.365Z,2.98
2019-03-12T13:27:45.706Z,4.40
2019-03-12T13:30:17.302Z,9.55
2019-03-12T13:32:45.642Z,2.60
2019-03-12T13:35:15.412Z,3.27
2019-03-12T13:37:43.725Z,1.82
2019-03-12T13:40:19.495Z,1.45
2019-03-12T13:42:47.804Z,2.35
2019-03-12T13:45:27.593Z,3.70
2019-03-12T13:47:56.261Z,4.00
2019-03-12T13:50:24.928Z,2.90
2019-03-12T13:52:53.234Z,1.90
2019-03-12T13:55:21.625Z,1.72
2019-03-12T13:57:50.244Z,1.20
2019-03-12T14:00:20.679Z,1.62
2019-03-12T14:02:49.047Z,2.72
2019-03-12T14:05:17.302Z,1.72
2019-03-12T14:07:45.598Z,4.25
2019-03-12T14:10:18.915Z,3.22
2019-03-12T14:12:47.211Z,2.95
2019-03-12T14:15:27.228Z,2.62
2019-03-12T14:17:55.525Z,2.47
2019-03-12T14:20:38.578Z,2.95
2019-03-12T14:23:07.052Z,2.67
2019-03-12T14:25:35.677Z,1.95
2019-03-12T14:28:03.978Z,1.52
2019-03-12T14:30:32.298Z,1.52
2019-03-12T14:33:00.584Z,1.98
2019-03-12T14:35:28.958Z,1.12
2019-03-12T14:37:57.210Z,2.72
2019-03-12T14:40:25.491Z,2.52
2019-03-12T14:42:53.742Z,1.25
2019-03-12T14:45:27.055Z,2.50
2019-03-12T14:47:55.366Z,1.40
2019-03-12T14:50:25.410Z,1.95
2019-03-12T14:52:59.790Z,1.52
2019-03-12T14:55:28.058Z,2.90
2019-03-12T14:57:56.306Z,2.35
2019-03-12T15:00:25.824Z,1.90
2019-03-12T15:02:54.126Z,2.42
2019-03-12T15:05:22.378Z,2.22
2019-03-12T15:07:50.650Z,1.67
2019-03-12T15:10:18.918Z,1.87
2019-03-12T15:12:47.220Z,0.98
2019-03-12T15:15:15.474Z,0.85
2019-03-12T15:17:46.397Z,2.27
2019-03-12T15:20:15.158Z,2.58
2019-03-12T15:22:43.518Z,1.32
2019-03-12T15:25:13.072Z,2.55
2019-03-12T15:27:41.342Z,2.52
2019-03-12T15:30:15.680Z,3.10
2019-03-12T15:32:43.991Z,3.83
2019-03-12T15:35:12.272Z,0.75
2019-03-12T15:37:40.508Z,1.02
2019-03-12T15:40:13.571Z,3.72
2019-03-12T15:42:41.808Z,1.62
2019-03-12T15:45:14.491Z,2.17
2019-03-12T15:47:42.811Z,1.92
2019-03-12T15:50:18.799Z,3.87
2019-03-12T15:52:45.761Z,1.92
2019-03-12T15:55:13.990Z,2.60
2019-03-12T15:57:42.238Z,0.55
2019-03-12T16:00:12.567Z,1.37
2019-03-12T16:02:40.810Z,1.72
2019-03-12T16:05:09.138Z,2.05
2019-03-12T16:07:37.520Z,1.77
2019-03-12T16:10:19.925Z,3.25
2019-03-12T16:12:48.274Z,0.85
2019-03-12T16:15:19.469Z,2.60
2019-03-12T16:17:47.832Z,2.30
2019-03-12T16:20:17.558Z,1.00
2019-03-12T16:22:45.782Z,1.75
2019-03-12T16:25:14.023Z,2.52
2019-03-12T16:27:42.275Z,2.55
2019-03-12T16:30:16.344Z,6.20
2019-03-12T16:32:44.631Z,1.27
2019-03-12T16:35:12.874Z,2.92
2019-03-12T16:37:41.182Z,0.57
2019-03-12T16:40:17.434Z,0.65
2019-03-12T16:42:45.697Z,3.72
2019-03-12T16:45:16.423Z,2.65
2019-03-12T16:47:44.712Z,0.90
2019-03-12T16:50:14.430Z,3.42
2019-03-12T16:52:42.668Z,3.20
2019-03-12T16:55:18.118Z,3.50
2019-03-12T16:57:46.423Z,1.95
2019-03-12T17:00:20.064Z,2.00
2019-03-12T17:02:48.346Z,3.85
2019-03-12T17:05:16.649Z,1.30
2019-03-12T17:07:44.870Z,2.60
2019-03-12T17:10:16.355Z,3.25
2019-03-12T17:12:44.744Z,3.70
2019-03-12T17:15:15.794Z,3.25
2019-03-12T17:17:44.040Z,2.77
2019-03-12T17:20:13.818Z,2.33
2019-03-12T17:22:42.088Z,4.58
2019-03-12T17:25:11.455Z,4.20
2019-03-12T17:27:39.715Z,3.55
2019-03-12T17:30:17.032Z,5.70
2019-03-12T17:32:45.298Z,4.30
2019-03-12T17:35:19.842Z,5.17
2019-03-12T17:37:49.018Z,5.90
2019-03-12T17:40:21.394Z,5.12
2019-03-12T17:42:49.655Z,5.37
2019-03-12T17:45:17.913Z,6.03
2019-03-12T17:47:46.155Z,6.35
2019-03-12T17:50:14.537Z,5.05
2019-03-12T17:52:42.767Z,4.97
2019-03-12T17:55:15.332Z,5.50
2019-03-12T17:57:43.706Z,4.72
2019-03-12T18:00:14.944Z,7.53
2019-03-12T18:02:43.298Z,8.73
2019-03-12T18:05:12.736Z,8.50
2019-03-12T18:07:41.097Z,9.80
2019-03-12T18:10:16.376Z,10.70
2019-03-12T18:12:44.680Z,9.58
2019-03-12T18:15:18.990Z,15.05
2019-03-12T18:17:45.870Z,11.00
2019-03-12T18:20:23.512Z,8.48
2019-03-12T18:22:51.768Z,7.72
2019-03-12T18:25:28.208Z,13.00
2019-03-12T18:27:57.579Z,8.50
2019-03-12T18:30:25.829Z,9.13
2019-03-12T18:32:54.131Z,6.50
2019-03-12T18:35:22.376Z,3.58
2019-03-12T18:37:50.680Z,7.83
2019-03-12T18:40:20.473Z,3.95
2019-03-12T18:42:48.848Z,5.03
2019-03-12T18:45:19.427Z,7.62
2019-03-12T18:47:47.761Z,6.00
2019-03-12T18:50:17.197Z,6.05
2019-03-12T18:52:48.409Z,6.00
2019-03-12T18:55:26.061Z,7.10
2019-03-12T18:57:54.329Z,7.47
2019-03-12T19:00:22.715Z,5.10
2019-03-12T19:02:55.122Z,9.08
2019-03-12T19:05:23.465Z,5.62
2019-03-12T19:07:51.852Z,7.45
2019-03-12T19:10:20.183Z,7.58
2019-03-12T19:12:48.476Z,7.05
2019-03-12T19:15:16.880Z,2.95
2019-03-12T19:17:45.334Z,6.33
2019-03-12T19:20:18.251Z,3.62
2019-03-12T19:22:49.452Z,3.22
2019-03-12T19:25:28.485Z,3.22
2019-03-12T19:28:00.562Z,3.87
2019-03-12T19:30:32.320Z,3.45
2019-03-12T19:33:08.370Z,3.08
2019-03-12T19:35:38.661Z,6.40
2019-03-12T19:38:15.771Z,4.67
2019-03-12T19:40:50.233Z,4.05
2019-03-12T19:43:18.549Z,6.08
2019-03-12T19:45:49.628Z,5.12
2019-03-12T19:48:17.886Z,3.58
2019-03-12T19:50:46.218Z,2.58
2019-03-12T19:53:14.536Z,3.50
2019-03-12T19:55:52.008Z,3.55
2019-03-12T19:58:21.469Z,3.55
2019-03-12T20:00:50.770Z,2.77
2019-03-12T20:03:19.037Z,3.58
2019-03-12T20:05:47.399Z,6.33
2019-03-12T20:08:22.610Z,5.72
2019-03-12T20:10:59.884Z,4.70
2019-03-12T20:14:04.655Z,4.65
2019-03-12T20:17:08.153Z,9.08
2019-03-12T20:19:45.891Z,8.65
2019-03-12T20:22:33.917Z,8.25
2019-03-12T20:25:17.638Z,8.20
2019-03-12T20:27:58.076Z,6.85
2019-03-12T20:31:03.153Z,4.17
2019-03-12T20:33:52.871Z,4.12
2019-03-12T20:36:53.027Z,4.97
2019-03-12T20:39:41.079Z,4.28
2019-03-12T20:42:45.711Z,5.45
2019-03-12T20:45:33.694Z,5.35
2019-03-12T20:48:21.709Z,4.50
2019-03-12T20:51:15.338Z,4.03
2019-03-12T20:53:49.827Z,3.90
2019-03-12T20:56:54.579Z,4.42
2019-03-12T20:59:42.314Z,3.80
2019-03-12T21:02:30.403Z,7.22
2019-03-12T21:05:19.961Z,3.37
2019-03-12T21:08:12.430Z,3.58
2019-03-12T21:11:17.176Z,2.17
2019-03-12T21:14:23.746Z,2.83
2019-03-12T21:17:13.719Z,3.12
2019-03-12T21:20:21.624Z,2.80
2019-03-12T21:22:56.917Z,3.95
2019-03-12T21:25:48.308Z,2.45
2019-03-12T21:28:47.183Z,2.10
2019-03-12T21:31:15.702Z,3.37
2019-03-12T21:33:45.953Z,2.42
2019-03-12T21:36:21.358Z,4.90
2019-03-12T21:38:49.769Z,5.87
2019-03-12T21:41:18.358Z,3.10
2019-03-12T21:43:47.454Z,2.50
2019-03-12T21:46:17.609Z,3.70
2019-03-12T21:48:51.731Z,10.15
2019-03-12T21:51:20.044Z,7.47
2019-03-12T21:53:50.104Z,4.90
2019-03-12T21:56:20.751Z,3.45
2019-03-12T21:58:49.365Z,3.37
2019-03-12T22:01:17.672Z,2.75
2019-03-12T22:03:45.957Z,3.40
2019-03-12T22:06:14.226Z,3.25
2019-03-12T22:08:42.498Z,3.65
2019-03-12T22:11:10.755Z,1.70
2019-03-12T22:13:38.996Z,2.37
2019-03-12T22:16:07.267Z,2.55
2019-03-12T22:18:35.569Z,2.65
2019-03-12T22:21:03.851Z,1.92
2019-03-12T22:23:41.472Z,2.50
2019-03-12T22:26:17.678Z,2.77
2019-03-12T22:28:46.023Z,3.20
2019-03-12T22:31:15.971Z,4.60
2019-03-12T22:33:45.899Z,3.02
2019-03-12T22:36:14.260Z,2.27
2019-03-12T22:38:42.637Z,3.70
2019-03-12T22:41:11.032Z,3.33
2019-03-12T22:43:39.435Z,2.75
2019-03-12T22:46:07.843Z,1.77
2019-03-12T22:48:36.138Z,1.67
2019-03-12T22:51:06.108Z,2.52
2019-03-12T22:53:36.044Z,2.00
2019-03-12T22:56:04.341Z,3.50
2019-03-12T22:58:32.698Z,2.55
2019-03-12T23:01:00.965Z,3.80
2019-03-12T23:03:29.262Z,1.92
2019-03-12T23:05:57.520Z,2.67
2019-03-12T23:08:28.291Z,2.60
2019-03-12T23:10:56.562Z,0.88
2019-03-12T23:13:24.858Z,3.77
2019-03-12T23:15:53.134Z,2.02
2019-03-12T23:18:21.395Z,4.67
2019-03-12T23:20:49.645Z,3.37
2019-03-12T23:23:17.951Z,2.02
2019-03-12T23:25:46.214Z,2.20
2019-03-12T23:28:14.461Z,1.80
2019-03-12T23:30:42.721Z,4.05
2019-03-12T23:33:10.992Z,3.12
2019-03-12T23:35:39.358Z,0.80
2019-03-12T23:38:09.776Z,2.08
2019-03-12T23:40:41.199Z,2.77
2019-03-12T23:43:09.569Z,1.30
2019-03-12T23:45:37.821Z,2.55
2019-03-12T23:48:06.100Z,1.00
2019-03-12T23:50:34.425Z,2.87
2019-03-12T23:53:02.674Z,4.17
2019-03-12T23:55:31.258Z,3.75
2019-03-12T23:57:59.563Z,4.17
